createdAt,value
2023-02-01T00:00:27.869Z,4.76
2023-02-01T00:02:54.353Z,4.80
2023-02-01T00:05:20.828Z,4.81
2023-02-01T00:07:50.383Z,4.90
2023-02-01T00:10:17.341Z,4.92
2023-02-01T00:12:43.938Z,4.97
2023-02-01T00:15:10.451Z,5.00
2023-02-01T00:17:36.892Z,5.01
2023-02-01T00:20:04.218Z,4.98
2023-02-01T00:22:30.686Z,4.98
2023-02-01T00:24:57.169Z,4.97
2023-02-01T00:27:23.638Z,4.98
2023-02-01T00:29:50.056Z,4.98
2023-02-01T00:32:16.546Z,4.94
2023-02-01T00:34:43.012Z,4.94
2023-02-01T00:37:09.458Z,4.94
2023-02-01T00:39:35.924Z,4.90
2023-02-01T00:42:03.169Z,4.94
2023-02-01T00:44:34.172Z,4.92
2023-02-01T00:47:01.513Z,4.96
2023-02-01T00:49:29.246Z,4.94
2023-02-01T00:51:55.826Z,4.93
2023-02-01T00:54:22.348Z,4.91
2023-02-01T00:56:48.885Z,4.89
2023-02-01T00:59:15.442Z,4.86
2023-02-01T01:01:41.982Z,4.83
2023-02-01T01:04:08.697Z,4.87
2023-02-01T01:06:35.360Z,4.85
2023-02-01T01:09:04.785Z,4.84
2023-02-01T01:11:35.743Z,4.87
2023-02-01T01:14:02.395Z,4.87
2023-02-01T01:16:31.977Z,4.90
2023-02-01T01:18:59.172Z,4.89
2023-02-01T01:21:26.885Z,4.89
2023-02-01T01:23:53.442Z,4.90
2023-02-01T01:26:26.128Z,4.89
2023-02-01T01:28:53.158Z,4.84
2023-02-01T01:31:21.225Z,4.79
2023-02-01T01:33:53.220Z,4.76
2023-02-01T01:36:20.004Z,4.73
2023-02-01T01:38:46.958Z,4.69
2023-02-01T01:41:16.880Z,4.68
2023-02-01T01:44:04.991Z,4.63
2023-02-01T01:46:38.755Z,4.59
2023-02-01T01:49:25.009Z,4.58
2023-02-01T01:51:56.491Z,4.59
2023-02-01T01:54:30.327Z,4.57
2023-02-01T01:57:02.104Z,4.63
2023-02-01T01:59:29.451Z,4.64
2023-02-01T02:01:56.803Z,4.64
2023-02-01T02:04:23.821Z,4.69
2023-02-01T02:06:56.463Z,4.72
2023-02-01T02:09:23.104Z,4.76
2023-02-01T02:11:49.546Z,4.83
2023-02-01T02:14:20.665Z,4.94
2023-02-01T02:16:56.674Z,4.99
2023-02-01T02:19:58.580Z,5.08
2023-02-01T02:22:27.951Z,5.12
2023-02-01T02:25:18.148Z,5.20
2023-02-01T02:27:50.555Z,5.22
2023-02-01T02:30:31.133Z,5.26
2023-02-01T02:33:19.431Z,5.33
2023-02-01T02:36:20.686Z,5.38
2023-02-01T02:39:20.895Z,5.47
2023-02-01T02:42:37.014Z,5.52
2023-02-01T02:45:48.044Z,5.57
2023-02-01T02:48:23.508Z,5.62
2023-02-01T02:51:43.657Z,5.67
2023-02-01T02:54:35.092Z,5.70
2023-02-01T02:57:23.270Z,5.72
2023-02-01T03:00:08.644Z,5.78
2023-02-01T03:02:55.079Z,5.83
2023-02-01T03:05:21.831Z,5.86
2023-02-01T03:08:15.596Z,5.87
2023-02-01T03:10:54.870Z,5.92
2023-02-01T03:13:27.580Z,5.93
2023-02-01T03:16:27.374Z,5.95
2023-02-01T03:19:04.756Z,5.97
2023-02-01T03:21:34.390Z,5.99
2023-02-01T03:24:10.690Z,5.99
2023-02-01T03:26:42.491Z,6.00
2023-02-01T03:29:18.589Z,6.07
2023-02-01T03:31:45.278Z,6.06
2023-02-01T03:34:13.898Z,6.03
2023-02-01T03:36:49.193Z,6.01
2023-02-01T03:40:01.796Z,5.96
2023-02-01T03:42:34.971Z,5.95
2023-02-01T03:45:06.827Z,5.88
2023-02-01T03:47:38.670Z,5.86
2023-02-01T03:50:11.818Z,5.87
2023-02-01T03:52:43.771Z,5.87
2023-02-01T03:55:13.549Z,5.83
2023-02-01T03:57:51.527Z,5.81
2023-02-01T04:00:23.181Z,5.80
2023-02-01T04:02:50.211Z,5.81
2023-02-01T04:05:17.683Z,5.85
2023-02-01T04:07:44.256Z,5.86
2023-02-01T04:10:12.266Z,5.91
2023-02-01T04:12:38.770Z,5.92
2023-02-01T04:15:06.202Z,5.97
2023-02-01T04:17:32.652Z,5.98
2023-02-01T04:19:59.122Z,6.01
2023-02-01T04:22:25.620Z,6.04
2023-02-01T04:24:52.334Z,6.05
2023-02-01T04:27:19.063Z,6.06
2023-02-01T04:29:46.252Z,6.11
2023-02-01T04:32:12.852Z,6.13
2023-02-01T04:34:39.306Z,6.11
2023-02-01T04:37:05.758Z,6.12
2023-02-01T04:39:32.205Z,6.15
2023-02-01T04:41:58.677Z,6.19
2023-02-01T04:44:25.209Z,6.21
2023-02-01T04:46:52.014Z,6.22
2023-02-01T04:49:18.475Z,6.24
2023-02-01T04:51:44.965Z,6.27
2023-02-01T04:54:12.438Z,6.29
2023-02-01T04:56:39.045Z,6.31
2023-02-01T04:59:06.440Z,6.27
2023-02-01T05:01:33.780Z,6.28
2023-02-01T05:04:00.305Z,6.29
2023-02-01T05:06:26.777Z,6.31
2023-02-01T05:08:53.210Z,6.30
2023-02-01T05:11:38.390Z,6.28
2023-02-01T05:14:04.862Z,6.23
2023-02-01T05:16:31.352Z,6.24
2023-02-01T05:18:57.899Z,6.23
2023-02-01T05:21:24.517Z,6.21
2023-02-01T05:24:09.218Z,6.20
2023-02-01T05:26:36.304Z,6.21
2023-02-01T05:29:03.625Z,6.20
2023-02-01T05:31:30.247Z,6.17
2023-02-01T05:33:56.779Z,6.17
2023-02-01T05:36:23.439Z,6.18
2023-02-01T05:38:49.983Z,6.19
2023-02-01T05:41:16.448Z,6.14
2023-02-01T05:43:42.869Z,6.12
2023-02-01T05:46:11.700Z,6.13
2023-02-01T05:48:38.146Z,6.08
2023-02-01T05:51:04.719Z,6.12
2023-02-01T05:53:31.162Z,6.11
2023-02-01T05:55:57.579Z,6.10
2023-02-01T05:58:24.130Z,6.10
2023-02-01T06:00:50.647Z,6.08
2023-02-01T06:03:17.173Z,6.14
2023-02-01T06:05:48.013Z,6.17
2023-02-01T06:08:15.417Z,6.18
2023-02-01T06:10:41.999Z,6.17
2023-02-01T06:13:09.489Z,6.14
2023-02-01T06:15:38.367Z,6.13
2023-02-01T06:18:05.291Z,6.12
2023-02-01T06:20:31.860Z,6.15
2023-02-01T06:22:58.348Z,6.13
2023-02-01T06:25:24.780Z,6.14
2023-02-01T06:27:51.245Z,6.13
2023-02-01T06:30:18.056Z,6.10
2023-02-01T06:32:44.559Z,6.13
2023-02-01T06:35:16.867Z,6.12
2023-02-01T06:37:44.185Z,6.11
2023-02-01T06:40:11.329Z,6.05
2023-02-01T06:42:37.849Z,6.03
2023-02-01T06:45:04.674Z,6.00
2023-02-01T06:47:31.151Z,5.99
2023-02-01T06:49:57.584Z,5.99
2023-02-01T06:52:24.067Z,5.94
2023-02-01T06:54:50.534Z,5.96
2023-02-01T06:57:16.986Z,5.99
2023-02-01T06:59:43.502Z,5.96
2023-02-01T07:02:12.421Z,5.94
2023-02-01T07:04:39.181Z,5.93
2023-02-01T07:07:05.967Z,5.92
2023-02-01T07:09:32.454Z,5.94
2023-02-01T07:11:58.934Z,5.93
2023-02-01T07:14:25.487Z,5.94
2023-02-01T07:16:52.115Z,5.95
2023-02-01T07:19:18.574Z,5.98
2023-02-01T07:21:45.049Z,5.97
2023-02-01T07:24:11.576Z,6.01
2023-02-01T07:26:38.031Z,6.02
2023-02-01T07:29:04.529Z,6.02
2023-02-01T07:31:31.023Z,6.02
2023-02-01T07:33:58.666Z,6.04
2023-02-01T07:36:25.623Z,6.08
2023-02-01T07:38:55.374Z,6.08
2023-02-01T07:41:23.010Z,6.08
2023-02-01T07:43:51.636Z,6.12
2023-02-01T07:46:18.267Z,6.08
2023-02-01T07:48:44.868Z,6.09
2023-02-01T07:51:14.867Z,6.09
2023-02-01T07:53:42.116Z,6.08
2023-02-01T07:56:17.747Z,6.09
2023-02-01T07:58:44.405Z,6.10
2023-02-01T08:01:21.445Z,6.08
2023-02-01T08:03:49.908Z,6.10
2023-02-01T08:06:16.856Z,6.12
2023-02-01T08:08:46.119Z,6.14
2023-02-01T08:11:12.745Z,6.20
2023-02-01T08:13:39.409Z,6.21
2023-02-01T08:16:09.256Z,6.22
2023-02-01T08:18:36.851Z,6.21
2023-02-01T08:21:08.197Z,6.21
2023-02-01T08:23:36.033Z,6.22
2023-02-01T08:26:26.881Z,6.21
2023-02-01T08:28:56.626Z,6.19
2023-02-01T08:31:25.269Z,6.17
2023-02-01T08:33:56.756Z,6.12
2023-02-01T08:36:24.918Z,6.10
2023-02-01T08:38:52.065Z,6.10
2023-02-01T08:41:21.111Z,6.09
2023-02-01T08:43:48.901Z,6.10
2023-02-01T08:46:15.791Z,6.12
2023-02-01T08:48:42.397Z,6.17
2023-02-01T08:51:12.142Z,6.22
2023-02-01T08:53:41.130Z,6.28
2023-02-01T08:56:08.286Z,6.36
2023-02-01T08:58:34.965Z,6.40
2023-02-01T09:01:13.565Z,6.47
2023-02-01T09:03:40.733Z,6.56
2023-02-01T09:06:13.021Z,6.66
2023-02-01T09:08:40.821Z,6.71
2023-02-01T09:11:12.480Z,6.72
2023-02-01T09:13:38.939Z,6.77
2023-02-01T09:16:05.821Z,6.83
2023-02-01T09:18:32.369Z,6.90
2023-02-01T09:20:59.004Z,6.97
2023-02-01T09:23:25.961Z,6.97
2023-02-01T09:25:53.111Z,6.99
2023-02-01T09:28:20.548Z,7.11
2023-02-01T09:30:47.504Z,7.19
2023-02-01T09:33:14.106Z,7.25
2023-02-01T09:35:40.589Z,7.31
2023-02-01T09:38:07.210Z,7.33
2023-02-01T09:40:36.321Z,7.31
2023-02-01T09:43:13.774Z,7.33
2023-02-01T09:46:09.118Z,7.34
2023-02-01T09:48:44.015Z,7.31
2023-02-01T09:51:18.027Z,7.27
2023-02-01T09:53:49.343Z,7.26
2023-02-01T09:56:21.897Z,7.23
2023-02-01T09:59:15.550Z,7.23
2023-02-01T10:01:43.907Z,7.21
2023-02-01T10:04:15.429Z,7.20
2023-02-01T10:07:03.057Z,7.20
2023-02-01T10:09:48.515Z,7.19
2023-02-01T10:12:20.876Z,7.17
2023-02-01T10:14:58.309Z,7.14
2023-02-01T10:17:55.437Z,7.14
2023-02-01T10:20:52.507Z,7.16
2023-02-01T10:23:40.098Z,7.14
2023-02-01T10:26:15.609Z,7.08
2023-02-01T10:28:45.202Z,6.99
2023-02-01T10:31:11.843Z,6.93
2023-02-01T10:33:52.308Z,6.86
2023-02-01T10:36:41.531Z,6.78
2023-02-01T10:39:12.912Z,6.71
2023-02-01T10:41:41.628Z,6.70
2023-02-01T10:44:19.238Z,6.67
2023-02-01T10:46:45.920Z,6.64
2023-02-01T10:49:50.439Z,6.65
2023-02-01T10:52:27.962Z,6.64
2023-02-01T10:54:54.532Z,6.73
2023-02-01T10:57:27.182Z,6.75
2023-02-01T10:59:54.124Z,6.77
2023-02-01T11:02:36.262Z,6.78
2023-02-01T11:05:06.933Z,6.79
2023-02-01T11:07:33.647Z,6.83
2023-02-01T11:10:00.222Z,6.82
2023-02-01T11:12:38.463Z,6.86
2023-02-01T11:15:25.876Z,6.89
2023-02-01T11:17:55.668Z,6.95
2023-02-01T11:20:34.638Z,6.94
2023-02-01T11:23:02.399Z,6.91
2023-02-01T11:25:29.489Z,6.89
2023-02-01T11:27:57.689Z,6.92
2023-02-01T11:30:41.525Z,6.93
2023-02-01T11:33:13.786Z,6.88
2023-02-01T11:35:41.935Z,6.82
2023-02-01T11:38:27.374Z,6.82
2023-02-01T11:40:53.875Z,6.86
2023-02-01T11:43:26.928Z,6.92
2023-02-01T11:45:58.298Z,6.95
2023-02-01T11:48:27.577Z,6.99
2023-02-01T11:50:54.055Z,7.01
2023-02-01T11:53:40.622Z,7.06
2023-02-01T11:56:35.521Z,7.12
2023-02-01T11:59:13.953Z,7.16
2023-02-01T12:01:49.171Z,7.23
2023-02-01T12:04:46.771Z,7.30
2023-02-01T12:07:20.844Z,7.41
2023-02-01T12:09:47.290Z,7.49
2023-02-01T12:12:27.117Z,7.53
2023-02-01T12:15:05.516Z,7.61
2023-02-01T12:17:54.084Z,7.65
2023-02-01T12:20:41.106Z,7.70
2023-02-01T12:23:28.324Z,7.74
2023-02-01T12:26:22.369Z,7.75
2023-02-01T12:28:54.873Z,7.73
2023-02-01T12:31:37.960Z,7.69
2023-02-01T12:34:31.882Z,7.67
2023-02-01T12:37:30.794Z,7.67
2023-02-01T12:40:32.328Z,7.69
2023-02-01T12:43:22.614Z,7.71
2023-02-01T12:46:11.155Z,7.75
2023-02-01T12:48:37.705Z,7.76
2023-02-01T12:51:10.253Z,7.78
2023-02-01T12:54:05.938Z,7.77
2023-02-01T12:56:39.538Z,7.75
2023-02-01T12:59:25.603Z,7.78
2023-02-01T13:02:20.260Z,7.81
2023-02-01T13:04:59.849Z,7.83
2023-02-01T13:07:35.888Z,7.85
2023-02-01T13:10:17.325Z,7.86
2023-02-01T13:13:01.414Z,7.89
2023-02-01T13:15:40.409Z,7.90
2023-02-01T13:18:12.966Z,7.88
2023-02-01T13:21:03.568Z,7.88
2023-02-01T13:23:38.457Z,7.87
2023-02-01T13:26:05.051Z,7.87
2023-02-01T13:28:56.078Z,7.85
2023-02-01T13:31:29.294Z,7.89
2023-02-01T13:34:33.381Z,7.89
2023-02-01T13:37:30.864Z,7.90
2023-02-01T13:40:22.179Z,7.92
2023-02-01T13:42:54.172Z,7.91
2023-02-01T13:45:24.789Z,7.91
2023-02-01T13:47:55.946Z,7.92
2023-02-01T13:50:35.009Z,7.95
2023-02-01T13:53:08.270Z,7.96
2023-02-01T13:55:40.454Z,8.00
2023-02-01T13:58:09.710Z,7.99
2023-02-01T14:00:38.498Z,7.98
2023-02-01T14:03:47.425Z,7.98
2023-02-01T14:06:43.795Z,8.00
2023-02-01T14:09:15.055Z,8.02
2023-02-01T14:11:58.744Z,8.04
2023-02-01T14:14:25.361Z,8.03
2023-02-01T14:16:54.970Z,8.01
2023-02-01T14:19:22.937Z,7.99
2023-02-01T14:21:52.601Z,8.00
2023-02-01T14:24:27.659Z,7.98
2023-02-01T14:26:56.116Z,8.00
2023-02-01T14:29:36.263Z,8.04
2023-02-01T14:32:13.446Z,8.04
2023-02-01T14:34:48.922Z,8.02
2023-02-01T14:37:18.580Z,8.02
2023-02-01T14:39:47.790Z,8.03
2023-02-01T14:42:24.447Z,8.01
2023-02-01T14:44:59.077Z,8.01
2023-02-01T14:47:29.788Z,8.00
2023-02-01T14:49:58.256Z,7.99
2023-02-01T14:52:39.252Z,7.96
2023-02-01T14:55:12.062Z,7.95
2023-02-01T14:57:41.613Z,7.95
2023-02-01T15:00:30.170Z,7.95
2023-02-01T15:03:24.378Z,7.95
2023-02-01T15:06:00.194Z,7.94
2023-02-01T15:08:31.243Z,7.95
2023-02-01T15:11:01.361Z,7.93
2023-02-01T15:13:29.706Z,7.93
2023-02-01T15:16:07.335Z,7.90
2023-02-01T15:18:34.196Z,7.87
2023-02-01T15:21:09.697Z,7.94
2023-02-01T15:23:49.783Z,7.92
2023-02-01T15:26:30.361Z,7.92
2023-02-01T15:28:59.957Z,7.91
2023-02-01T15:31:41.803Z,7.90
2023-02-01T15:34:08.681Z,7.89
2023-02-01T15:36:36.235Z,7.91
2023-02-01T15:39:20.912Z,7.91
2023-02-01T15:41:50.249Z,7.93
2023-02-01T15:44:28.367Z,7.95
2023-02-01T15:46:55.258Z,8.02
2023-02-01T15:49:38.434Z,8.01
2023-02-01T15:52:20.977Z,7.99
2023-02-01T15:54:50.634Z,7.97
2023-02-01T15:57:34.047Z,7.94
2023-02-01T16:00:21.540Z,7.94
2023-02-01T16:02:57.858Z,7.93
2023-02-01T16:05:33.622Z,7.92
2023-02-01T16:08:16.802Z,7.93
2023-02-01T16:10:48.709Z,7.91
2023-02-01T16:13:17.073Z,7.93
2023-02-01T16:15:43.936Z,7.93
2023-02-01T16:18:16.864Z,7.95
2023-02-01T16:20:44.983Z,7.97
2023-02-01T16:23:11.923Z,7.98
2023-02-01T16:25:39.228Z,7.99
2023-02-01T16:28:06.437Z,8.02
2023-02-01T16:30:33.618Z,8.01
2023-02-01T16:33:03.607Z,8.01
2023-02-01T16:35:36.536Z,8.03
2023-02-01T16:38:09.623Z,8.03
2023-02-01T16:40:36.223Z,8.04
2023-02-01T16:43:03.252Z,8.05
2023-02-01T16:45:29.853Z,8.07
2023-02-01T16:47:58.293Z,8.09
2023-02-01T16:50:26.586Z,8.08
2023-02-01T16:52:54.368Z,8.10
2023-02-01T16:55:23.104Z,8.10
2023-02-01T16:57:50.019Z,8.13
2023-02-01T17:00:25.716Z,8.17
2023-02-01T17:02:53.939Z,8.16
2023-02-01T17:05:20.628Z,8.19
2023-02-01T17:07:47.284Z,8.20
2023-02-01T17:10:33.382Z,8.24
2023-02-01T17:13:00.786Z,8.24
2023-02-01T17:15:34.839Z,8.28
2023-02-01T17:18:02.798Z,8.28
2023-02-01T17:20:32.970Z,8.26
2023-02-01T17:22:59.842Z,8.29
2023-02-01T17:25:28.641Z,8.28
2023-02-01T17:27:55.302Z,8.27
2023-02-01T17:30:22.136Z,8.29
2023-02-01T17:32:48.803Z,8.36
2023-02-01T17:35:23.482Z,8.36
2023-02-01T17:37:51.031Z,8.35
2023-02-01T17:40:18.005Z,8.43
2023-02-01T17:42:44.730Z,8.42
2023-02-01T17:45:28.757Z,8.39
2023-02-01T17:47:55.210Z,8.40
2023-02-01T17:50:22.531Z,8.40
2023-02-01T17:52:49.028Z,8.38
2023-02-01T17:55:23.748Z,8.41
2023-02-01T17:57:50.834Z,8.42
2023-02-01T18:00:18.395Z,8.43
2023-02-01T18:02:45.343Z,8.45
2023-02-01T18:05:14.552Z,8.47
2023-02-01T18:07:41.032Z,8.47
2023-02-01T18:10:08.037Z,8.45
2023-02-01T18:12:35.058Z,8.43
2023-02-01T18:15:02.335Z,8.42
2023-02-01T18:17:28.762Z,8.40
2023-02-01T18:19:55.426Z,8.37
2023-02-01T18:22:24.274Z,8.39
2023-02-01T18:24:50.899Z,8.37
2023-02-01T18:27:17.306Z,8.34
2023-02-01T18:29:43.824Z,8.34
2023-02-01T18:32:10.871Z,8.33
2023-02-01T18:34:37.379Z,8.34
2023-02-01T18:37:03.875Z,8.38
2023-02-01T18:39:30.424Z,8.37
2023-02-01T18:41:56.869Z,8.36
2023-02-01T18:44:24.164Z,8.39
2023-02-01T18:46:50.672Z,8.40
2023-02-01T18:49:18.811Z,8.41
2023-02-01T18:51:46.661Z,8.41
2023-02-01T18:54:14.487Z,8.40
2023-02-01T18:56:41.075Z,8.42
2023-02-01T18:59:08.620Z,8.41
2023-02-01T19:01:35.176Z,8.41
2023-02-01T19:04:11.160Z,8.43
2023-02-01T19:06:41.590Z,8.44
2023-02-01T19:09:08.112Z,8.41
2023-02-01T19:11:34.818Z,8.43
2023-02-01T19:14:01.350Z,8.45
2023-02-01T19:16:27.919Z,8.44
2023-02-01T19:18:54.473Z,8.44
2023-02-01T19:21:20.925Z,8.43
2023-02-01T19:23:47.422Z,8.45
2023-02-01T19:26:18.016Z,8.45
2023-02-01T19:28:47.666Z,8.48
2023-02-01T19:31:15.240Z,8.50
2023-02-01T19:33:41.815Z,8.50
2023-02-01T19:36:10.833Z,8.50
2023-02-01T19:38:37.744Z,8.48
2023-02-01T19:41:04.557Z,8.49
2023-02-01T19:43:31.131Z,8.52
2023-02-01T19:45:57.686Z,8.51
2023-02-01T19:48:25.015Z,8.52
2023-02-01T19:50:51.652Z,8.52
2023-02-01T19:53:19.523Z,8.55
2023-02-01T19:55:47.011Z,8.54
2023-02-01T19:58:14.707Z,8.54
2023-02-01T20:00:41.149Z,8.52
2023-02-01T20:03:08.167Z,8.50
2023-02-01T20:05:34.794Z,8.54
2023-02-01T20:08:01.545Z,8.55
2023-02-01T20:10:28.266Z,8.55
2023-02-01T20:12:54.873Z,8.54
2023-02-01T20:15:24.456Z,8.50
2023-02-01T20:17:51.329Z,8.44
2023-02-01T20:20:17.909Z,8.42
2023-02-01T20:22:45.372Z,8.43
2023-02-01T20:25:12.449Z,8.42
2023-02-01T20:27:39.844Z,8.41
2023-02-01T20:30:06.953Z,8.43
2023-02-01T20:32:33.464Z,8.43
2023-02-01T20:34:59.950Z,8.44
2023-02-01T20:37:26.496Z,8.43
2023-02-01T20:39:53.018Z,8.43
2023-02-01T20:42:19.462Z,8.45
2023-02-01T20:44:45.934Z,8.44
2023-02-01T20:47:12.375Z,8.45
2023-02-01T20:49:40.461Z,8.46
2023-02-01T20:52:07.164Z,8.49
2023-02-01T20:54:33.589Z,8.52
2023-02-01T20:57:00.137Z,8.51
2023-02-01T20:59:26.630Z,8.53
2023-02-01T21:01:53.397Z,8.51
2023-02-01T21:04:22.474Z,8.53
2023-02-01T21:06:49.414Z,8.54
2023-02-01T21:09:16.680Z,8.55
2023-02-01T21:11:44.209Z,8.55
2023-02-01T21:14:11.285Z,8.54
2023-02-01T21:16:37.945Z,8.54
2023-02-01T21:19:04.490Z,8.55
2023-02-01T21:21:31.375Z,8.55
2023-02-01T21:23:59.279Z,8.56
2023-02-01T21:26:27.484Z,8.55
2023-02-01T21:28:55.797Z,8.55
2023-02-01T21:31:25.621Z,8.51
2023-02-01T21:33:52.768Z,8.54
2023-02-01T21:36:19.961Z,8.54
2023-02-01T21:38:51.341Z,8.52
2023-02-01T21:41:42.657Z,8.52
2023-02-01T21:44:10.134Z,8.52
2023-02-01T21:46:36.616Z,8.51
2023-02-01T21:49:05.353Z,8.54
2023-02-01T21:51:35.222Z,8.54
2023-02-01T21:54:02.026Z,8.55
2023-02-01T21:56:28.548Z,8.52
2023-02-01T21:58:56.306Z,8.55
2023-02-01T22:01:23.159Z,8.56
2023-02-01T22:03:49.620Z,8.56
2023-02-01T22:06:48.630Z,8.56
2023-02-01T22:09:22.515Z,8.54
2023-02-01T22:11:50.439Z,8.56
2023-02-01T22:14:17.571Z,8.54
2023-02-01T22:16:44.725Z,8.53
2023-02-01T22:19:12.411Z,8.54
2023-02-01T22:21:41.871Z,8.53
2023-02-01T22:24:10.435Z,8.51
2023-02-01T22:26:37.404Z,8.49
2023-02-01T22:29:03.963Z,8.48
2023-02-01T22:31:30.533Z,8.44
2023-02-01T22:33:57.050Z,8.42
2023-02-01T22:36:25.295Z,8.41
2023-02-01T22:38:52.804Z,8.37
2023-02-01T22:41:20.315Z,8.35
2023-02-01T22:43:47.484Z,8.29
2023-02-01T22:46:17.039Z,8.23
2023-02-01T22:48:45.505Z,8.12
2023-02-01T22:51:24.143Z,7.95
2023-02-01T22:53:59.440Z,7.82
2023-02-01T22:56:35.118Z,7.77
2023-02-01T22:59:06.886Z,7.76
2023-02-01T23:01:34.593Z,7.71
2023-02-01T23:04:04.100Z,7.67
2023-02-01T23:06:32.086Z,7.68
2023-02-01T23:09:01.545Z,7.71
2023-02-01T23:11:29.041Z,7.66
2023-02-01T23:13:56.249Z,7.65
2023-02-01T23:16:23.104Z,7.62
2023-02-01T23:18:50.008Z,7.61
2023-02-01T23:21:18.816Z,7.59
2023-02-01T23:23:46.733Z,7.60
2023-02-01T23:26:13.512Z,7.58
2023-02-01T23:28:40.006Z,7.56
2023-02-01T23:31:11.094Z,7.52
2023-02-01T23:33:38.295Z,7.50
2023-02-01T23:36:07.826Z,7.53
2023-02-01T23:38:34.720Z,7.51
2023-02-01T23:41:04.388Z,7.52
2023-02-01T23:43:50.475Z,7.53
2023-02-01T23:46:18.206Z,7.53
2023-02-01T23:48:46.417Z,7.49
2023-02-01T23:51:15.548Z,7.48
2023-02-01T23:53:42.072Z,7.49
2023-02-01T23:56:15.606Z,7.48
2023-02-01T23:58:42.569Z,7.48
